Time;durP1;ratioP1;P1;durP2;ratioP2;P2;SDS_P1;SDS_P2;PMS_P1;PMS_P2;Temp;Humidity;BMP_temperature;BMP_pressure;BME280_temperature;BME280_humidity;BME280_pressure;Samples;Min_cycle;Max_cycle;Signal;HPM_P1;HPM_P2
2023/09/29 00:02:46;;;;;;;25.60;10.10;;;;;;;19.66;51.90;99479.41;67904;1276;1016271;-66
2023/09/29 00:05:49;;;;;;;;;;;;;;;19.61;51.92;99474.89;67869;1276;1016301;-66
2023/09/29 00:08:51;;;;;;;25.50;10.50;;;;;;;19.47;52.13;99476.77;67861;1276;1016195;-66
2023/09/29 00:11:54;;;;;;;27.20;10.90;;;;;;;19.47;52.40;99478.02;67896;1276;1016360;-67
2023/09/29 00:14:57;;;;;;;23.80;8.70;;;;;;;19.41;52.18;99482.41;67834;1259;1016832;-67
2023/09/29 00:18:00;;;;;;;22.40;7.60;;;;;;;19.12;52.18;99482.79;67905;1276;1016357;-68
2023/09/29 00:21:02;;;;;;;24.90;10.00;;;;;;;19.16;52.04;99479.42;67874;1276;1016451;-67
2023/09/29 00:24:05;;;;;;;20.40;7.30;;;;;;;19.24;52.38;99482.67;67877;1276;1016339;-66
2023/09/29 00:27:07;;;;;;;20.60;8.00;;;;;;;19.09;52.49;99497.64;67882;1276;1016396;-66
2023/09/29 00:30:12;;;;;;;20.50;7.50;;;;;;;18.93;52.06;99500.80;67859;1276;1016494;-66
2023/09/29 00:33:15;;;;;;;23.70;8.80;;;;;;;18.97;51.62;99494.71;67879;1276;1017153;-66
2023/09/29 00:36:18;;;;;;;28.10;12.00;;;;;;;18.97;52.36;99497.21;67851;1276;1016472;-66
2023/09/29 00:39:20;;;;;;;29.20;12.00;;;;;;;19.08;52.94;99495.77;67902;1276;1016436;-66
2023/09/29 00:42:23;;;;;;;28.10;12.80;;;;;;;19.19;52.90;99494.80;67863;1276;1016490;-66
2023/09/29 00:45:25;;;;;;;25.10;11.20;;;;;;;19.16;52.86;99493.45;67871;1276;1016421;-67
2023/09/29 00:48:30;;;;;;;25.50;11.10;;;;;;;19.03;52.70;99497.94;67906;1276;1016386;-67
2023/09/29 00:51:34;;;;;;;27.00;10.80;;;;;;;18.91;52.48;99493.98;67908;1276;1017105;-67
2023/09/29 00:54:37;;;;;;;23.70;9.70;;;;;;;18.80;52.31;99493.30;67875;1276;1016466;-67
2023/09/29 00:57:39;;;;;;;23.10;9.50;;;;;;;18.77;52.35;99498.88;67867;1276;1016155;-66
2023/09/29 01:00:42;;;;;;;21.20;7.70;;;;;;;18.95;52.30;99500.69;67831;1271;1016487;-67
2023/09/29 01:03:44;;;;;;;22.30;8.40;;;;;;;18.99;51.74;99501.44;67896;1276;1018646;-66
2023/09/29 01:06:47;;;;;;;27.00;9.50;;;;;;;18.93;51.87;99496.12;67882;1276;1016160;-66
2023/09/29 01:09:50;;;;;;;25.40;11.00;;;;;;;18.90;52.24;99493.78;67860;1276;1016427;-67
2023/09/29 01:12:53;;;;;;;27.10;11.70;;;;;;;18.89;52.77;99492.91;67875;1276;1016355;-66
2023/09/29 01:15:56;;;;;;;28.90;11.70;;;;;;;18.97;52.96;99494.19;67840;1276;1020984;-66
2023/09/29 01:18:58;;;;;;;26.30;10.70;;;;;;;19.06;52.78;99495.02;67860;1276;1016500;-66
2023/09/29 01:22:01;;;;;;;23.90;11.20;;;;;;;19.01;52.51;99496.84;67895;1276;1016444;-65
2023/09/29 01:25:03;;;;;;;26.80;11.40;;;;;;;18.92;52.77;99492.48;67897;1276;1016545;-65
2023/09/29 01:28:06;;;;;;;26.20;11.60;;;;;;;18.99;52.67;99492.80;67869;1276;1020599;-66
2023/09/29 01:31:09;;;;;;;27.60;12.00;;;;;;;19.05;52.89;99494.90;67871;1276;1015971;-66
2023/09/29 01:34:12;;;;;;;28.20;11.50;;;;;;;19.01;52.96;99490.13;67879;1276;1016257;-66
2023/09/29 01:37:15;;;;;;;32.30;13.50;;;;;;;19.07;52.96;99492.84;67893;1276;1016333;-66
2023/09/29 01:40:20;;;;;;;30.40;14.20;;;;;;;19.03;53.39;99492.63;67859;1276;1017305;-66
2023/09/29 01:43:23;;;;;;;31.30;15.10;;;;;;;18.99;53.57;99491.59;67853;1276;1018827;-65
2023/09/29 01:46:26;;;;;;;25.20;10.30;;;;;;;19.06;53.09;99487.80;67840;1276;1016351;-65
2023/09/29 01:49:29;;;;;;;31.60;12.90;;;;;;;19.14;53.19;99489.08;67870;1276;1016486;-65
2023/09/29 01:52:32;;;;;;;28.00;11.40;;;;;;;19.14;53.16;99488.51;67867;1276;1016485;-65
2023/09/29 01:55:34;;;;;;;26.80;11.70;;;;;;;19.09;52.89;99488.37;67828;1276;1016417;-65
2023/09/29 01:58:37;;;;;;;27.00;11.70;;;;;;;18.90;53.53;99490.56;67908;1276;1016475;-66
2023/09/29 02:01:39;;;;;;;27.70;12.20;;;;;;;18.72;53.80;99493.98;67888;1276;1016463;-66
2023/09/29 02:04:41;;;;;;;29.40;12.70;;;;;;;18.62;54.40;99493.01;67897;1276;1016072;-66
2023/09/29 02:07:44;;;;;;;28.90;13.50;;;;;;;18.61;54.47;99495.23;67844;1276;1016724;-67
2023/09/29 02:10:49;;;;;;;28.80;13.50;;;;;;;18.63;54.57;99492.04;67869;1276;1015909;-65
2023/09/29 02:13:51;;;;;;;27.30;12.40;;;;;;;18.75;53.95;99488.42;67868;1276;1016457;-66
2023/09/29 02:16:53;;;;;;;28.30;13.10;;;;;;;18.80;53.67;99491.56;67890;1276;1016959;-66
2023/09/29 02:19:56;;;;;;;;;;;;;;;18.78;53.82;99493.29;67907;1276;1016489;-65
2023/09/29 02:22:59;;;;;;;30.90;13.20;;;;;;;18.78;54.10;99491.50;67837;1276;1016683;-66
2023/09/29 02:26:03;;;;;;;26.10;11.70;;;;;;;18.78;54.00;99487.83;67907;1276;1016019;-66
2023/09/29 02:29:09;;;;;;;26.90;11.60;;;;;;;18.69;53.94;99488.02;67885;1276;1018344;-66
2023/09/29 02:32:11;;;;;;;26.30;11.20;;;;;;;18.63;53.91;99486.23;67886;1276;1018276;-65
2023/09/29 02:35:14;;;;;;;32.80;13.60;;;;;;;18.54;54.46;99485.62;67903;1276;1016415;-66
2023/09/29 02:38:16;;;;;;;26.70;12.70;;;;;;;18.37;55.19;99488.39;67858;1276;1016444;-66
2023/09/29 02:41:20;;;;;;;26.40;12.20;;;;;;;18.44;54.98;99486.95;67841;1276;1016152;-66
2023/09/29 02:44:22;;;;;;;24.30;10.40;;;;;;;18.47;54.94;99483.83;67850;1276;1016400;-66
2023/09/29 02:47:25;;;;;;;24.30;10.00;;;;;;;18.33;55.01;99482.55;67874;1276;1016728;-66
2023/09/29 02:50:27;;;;;;;22.70;9.30;;;;;;;18.22;54.83;99481.70;67855;1276;1016434;-66
2023/09/29 02:53:29;;;;;;;25.30;10.60;;;;;;;18.21;54.96;99479.46;67879;1276;1016885;-66
2023/09/29 02:56:32;;;;;;;25.00;10.80;;;;;;;18.16;55.12;99474.19;67873;1276;1016440;-66
2023/09/29 02:59:34;;;;;;;22.90;9.60;;;;;;;18.14;55.29;99473.92;67824;1276;1016429;-66
2023/09/29 03:02:37;;;;;;;32.00;11.60;;;;;;;18.10;55.49;99472.05;67863;1276;1018737;-66
2023/09/29 03:05:40;;;;;;;28.60;13.90;;;;;;;18.08;55.40;99468.27;67852;1276;1016333;-66
2023/09/29 03:08:42;;;;;;;32.00;13.10;;;;;;;18.10;54.92;99466.56;67878;1276;1016392;-67
2023/09/29 03:11:45;;;;;;;27.00;12.20;;;;;;;18.10;55.15;99465.98;67781;1276;1016151;-66
2023/09/29 03:14:47;;;;;;;28.80;12.60;;;;;;;18.11;55.10;99466.83;67854;1276;1016399;-67
2023/09/29 03:17:49;;;;;;;26.80;12.40;;;;;;;18.04;55.25;99462.08;67870;1276;1016496;-67
2023/09/29 03:20:52;;;;;;;28.50;11.80;;;;;;;18.06;55.47;99458.01;67817;1276;1016776;-67
2023/09/29 03:23:54;;;;;;;27.40;13.00;;;;;;;18.18;55.59;99458.06;67863;1276;1018266;-66
2023/09/29 03:26:57;;;;;;;27.30;12.70;;;;;;;18.17;55.80;99460.27;67820;1276;1016176;-66
2023/09/29 03:30:00;;;;;;;28.60;12.40;;;;;;;18.21;55.51;99459.42;67844;1276;1016485;-66
2023/09/29 03:33:02;;;;;;;27.20;12.50;;;;;;;18.18;55.82;99460.58;67892;1276;1016373;-66
2023/09/29 03:36:05;;;;;;;26.60;12.60;;;;;;;18.22;55.46;99461.48;67828;1276;1016393;-66
2023/09/29 03:39:09;;;;;;;23.20;9.60;;;;;;;18.12;55.73;99460.18;67837;1276;1016287;-67
2023/09/29 03:42:13;;;;;;;25.20;11.30;;;;;;;18.09;55.43;99460.23;67863;1276;1016231;-66
2023/09/29 03:45:16;;;;;;;29.10;13.50;;;;;;;18.21;55.02;99458.92;67846;1276;1016325;-66
2023/09/29 03:48:18;;;;;;;31.30;13.10;;;;;;;18.29;55.09;99458.98;67872;1276;1016295;-66
2023/09/29 03:51:21;;;;;;;31.20;14.20;;;;;;;18.42;54.37;99457.33;67902;1276;1016170;-66
2023/09/29 03:54:24;;;;;;;29.10;13.50;;;;;;;18.43;54.62;99453.70;67848;1276;1015980;-66
2023/09/29 03:57:26;;;;;;;28.60;13.90;;;;;;;18.46;54.39;99450.31;67877;1276;1016517;-66
2023/09/29 04:00:30;;;;;;;26.40;12.50;;;;;;;18.47;54.19;99447.70;67848;1276;1017304;-66
2023/09/29 04:03:33;;;;;;;30.30;14.30;;;;;;;18.47;54.37;99444.55;67895;1276;1016110;-68
2023/09/29 04:06:36;;;;;;;28.30;12.50;;;;;;;18.46;54.69;99447.60;67875;1276;1016345;-66
2023/09/29 04:09:39;;;;;;;26.40;12.90;;;;;;;18.48;54.85;99443.73;67891;1276;1016278;-66
2023/09/29 04:12:41;;;;;;;29.10;13.80;;;;;;;18.51;55.06;99443.97;67842;1276;1016299;-64
2023/09/29 04:15:44;;;;;;;26.80;11.90;;;;;;;18.49;55.00;99442.61;67881;1276;1016478;-65
2023/09/29 04:18:46;;;;;;;28.40;13.90;;;;;;;18.37;54.82;99445.72;67899;1276;1016646;-65
2023/09/29 04:21:49;;;;;;;28.20;12.60;;;;;;;18.33;54.69;99443.73;67852;1276;1016240;-65
2023/09/29 04:24:51;;;;;;;27.80;12.60;;;;;;;18.39;54.67;99443.48;67841;1276;1015833;-65
2023/09/29 04:27:53;;;;;;;29.40;13.30;;;;;;;18.37;54.55;99445.69;67833;1276;1016113;-65
2023/09/29 04:30:56;;;;;;;25.10;10.90;;;;;;;18.12;55.18;99446.16;67866;1276;1016364;-65
2023/09/29 04:33:58;;;;;;;22.00;9.50;;;;;;;18.19;54.56;99447.54;67884;1276;1016014;-65
2023/09/29 04:37:01;;;;;;;30.90;12.40;;;;;;;18.20;54.83;99443.94;67903;1276;1017287;-65
2023/09/29 04:40:04;;;;;;;;;;;;;;;18.27;55.20;99442.99;67876;1276;1016499;-65
2023/09/29 04:43:06;;;;;;;28.70;13.80;;;;;;;18.37;55.27;99442.19;67890;1276;1016481;-65
2023/09/29 04:46:08;;;;;;;30.90;13.90;;;;;;;18.40;55.02;99444.92;67879;1276;1016483;-65
2023/09/29 04:49:11;;;;;;;26.40;12.20;;;;;;;18.40;55.06;99447.24;67877;1276;1019506;-65
2023/09/29 04:52:13;;;;;;;29.70;14.10;;;;;;;18.40;55.29;99451.64;67833;1276;1016760;-66
2023/09/29 04:55:15;;;;;;;27.70;13.30;;;;;;;18.51;55.27;99448.42;67872;1276;1016456;-65
2023/09/29 04:58:18;;;;;;;33.80;17.10;;;;;;;18.54;55.32;99449.80;67866;1253;1016395;-65
2023/09/29 05:01:20;;;;;;;30.80;15.30;;;;;;;18.58;55.30;99451.23;67905;1276;1016345;-65
2023/09/29 05:04:23;;;;;;;32.90;14.60;;;;;;;18.66;55.25;99453.58;67867;1276;1016350;-65
2023/09/29 05:07:25;;;;;;;29.40;14.80;;;;;;;18.79;55.32;99455.25;67866;1276;1016425;-65
2023/09/29 05:10:27;;;;;;;32.00;15.90;;;;;;;18.91;55.27;99454.10;67845;1276;1016290;-65
2023/09/29 05:13:32;;;;;;;32.30;15.50;;;;;;;18.99;55.34;99453.24;67844;1276;1016258;-65
2023/09/29 05:16:34;;;;;;;32.70;15.60;;;;;;;19.10;55.42;99454.82;67885;1276;1016406;-65
2023/09/29 05:19:36;;;;;;;29.90;14.10;;;;;;;19.23;55.22;99453.14;67872;1276;1017895;-65
2023/09/29 05:22:39;;;;;;;29.40;14.10;;;;;;;19.32;55.28;99454.55;67886;1276;1016343;-65
2023/09/29 05:25:42;;;;;;;33.00;14.60;;;;;;;19.51;55.02;99459.09;67874;1276;1016557;-65
2023/09/29 05:28:44;;;;;;;35.80;15.90;;;;;;;19.73;54.78;99458.72;67916;1276;1017190;-65
2023/09/29 05:31:46;;;;;;;30.70;14.90;;;;;;;19.96;54.90;99455.85;67903;1276;1016367;-65
2023/09/29 05:34:49;;;;;;;33.80;15.70;;;;;;;19.78;55.37;99460.57;67891;1276;1016513;-67
2023/09/29 05:37:51;;;;;;;36.20;15.80;;;;;;;19.85;55.81;99462.31;67879;1276;1016741;-66
2023/09/29 05:40:54;;;;;;;33.40;15.30;;;;;;;20.27;55.02;99458.16;67857;1276;1016576;-66
2023/09/29 05:43:56;;;;;;;32.60;16.70;;;;;;;20.45;54.98;99458.43;67852;1276;1016381;-65
2023/09/29 05:46:58;;;;;;;29.80;15.90;;;;;;;20.87;54.36;99459.10;67879;1276;1016706;-65
2023/09/29 05:50:01;;;;;;;34.70;16.20;;;;;;;21.15;54.23;99462.09;67894;1276;1016518;-64
2023/09/29 05:53:03;;;;;;;31.50;15.50;;;;;;;21.06;55.05;99464.61;67901;1276;1016369;-65
2023/09/29 05:56:06;;;;;;;30.50;15.50;;;;;;;21.19;55.08;99463.67;67876;1276;1017267;-66
2023/09/29 05:59:09;;;;;;;33.30;16.80;;;;;;;21.42;54.98;99464.15;67848;1276;1016299;-64
2023/09/29 06:02:11;;;;;;;32.20;15.40;;;;;;;21.54;54.99;99465.52;67894;1276;1016177;-64
2023/09/29 06:05:13;;;;;;;34.50;15.90;;;;;;;21.74;54.85;99463.55;67869;1276;1016466;-64
2023/09/29 06:08:16;;;;;;;34.10;15.70;;;;;;;21.87;54.78;99461.85;67865;1276;1017684;-65
2023/09/29 06:11:18;;;;;;;31.90;15.10;;;;;;;22.05;55.03;99466.44;67832;1276;1016530;-64
2023/09/29 06:14:20;;;;;;;30.40;15.30;;;;;;;22.23;55.00;99465.23;67869;1276;1016508;-65
2023/09/29 06:17:23;;;;;;;32.20;15.90;;;;;;;22.44;54.87;99469.52;67877;1276;1016370;-64
2023/09/29 06:20:26;;;;;;;32.00;14.80;;;;;;;22.75;54.59;99464.98;67845;1276;1016393;-65
2023/09/29 06:23:28;;;;;;;;;;;;;;;23.24;53.72;99467.92;67826;1276;1016504;-64
2023/09/29 06:26:30;;;;;;;31.80;15.30;;;;;;;23.24;54.00;99468.40;67841;1276;1016338;-64
2023/09/29 06:29:33;;;;;;;32.30;15.70;;;;;;;23.40;54.01;99471.96;67885;1276;1016338;-65
2023/09/29 06:32:35;;;;;;;32.00;14.90;;;;;;;23.71;53.94;99473.71;67918;1276;1016396;-65
2023/09/29 06:35:39;;;;;;;35.90;14.50;;;;;;;23.95;53.39;99475.77;67893;1276;1016201;-64
2023/09/29 06:38:41;;;;;;;28.70;14.60;;;;;;;24.18;53.16;99476.09;67906;1276;1017320;-65
2023/09/29 06:41:44;;;;;;;;;;;;;;;24.38;52.86;99475.80;67850;1276;1016688;-66
2023/09/29 06:44:46;;;;;;;31.80;14.40;;;;;;;24.50;53.07;99478.33;67867;1276;1020197;-65
2023/09/29 06:47:48;;;;;;;31.00;14.40;;;;;;;24.74;52.78;99480.17;67859;1276;1016562;-65
2023/09/29 06:50:51;;;;;;;30.30;14.10;;;;;;;25.03;52.71;99487.43;67881;1276;1016392;-66
2023/09/29 06:53:53;;;;;;;32.10;14.20;;;;;;;25.07;52.23;99483.17;67904;1276;1016864;-66
2023/09/29 06:56:56;;;;;;;30.40;13.70;;;;;;;25.33;51.85;99488.02;67879;1276;1016460;-65
2023/09/29 06:59:58;;;;;;;;;;;;;;;25.53;51.86;99483.58;67827;1276;1016364;-65
2023/09/29 07:03:00;;;;;;;28.90;13.50;;;;;;;25.83;51.40;99485.20;67859;1276;1016459;-64
2023/09/29 07:06:03;;;;;;;28.50;13.80;;;;;;;26.05;50.85;99485.92;67867;1276;1016557;-66
2023/09/29 07:09:07;;;;;;;27.30;12.20;;;;;;;26.24;50.94;99483.88;67887;1276;1016663;-66
2023/09/29 07:12:09;;;;;;;28.60;13.20;;;;;;;26.46;50.71;99489.39;67860;1276;1016465;-65
2023/09/29 07:15:11;;;;;;;;;;;;;;;26.72;50.22;99492.55;67913;1276;1016064;-65
2023/09/29 07:18:16;;;;;;;27.10;12.30;;;;;;;26.93;49.68;99487.11;67879;1276;1017728;-65
2023/09/29 07:21:19;;;;;;;28.30;12.40;;;;;;;27.13;49.49;99487.41;67864;1276;1016789;-65
2023/09/29 07:24:21;;;;;;;28.00;11.70;;;;;;;27.36;49.31;99487.24;67900;1276;1016571;-65
2023/09/29 07:27:24;;;;;;;28.50;11.50;;;;;;;27.50;48.67;99490.58;67873;1276;1016320;-66
2023/09/29 07:30:26;;;;;;;;;;;;;;;27.53;48.35;99492.37;67884;1276;1016515;-65
2023/09/29 07:33:29;;;;;;;28.00;12.00;;;;;;;27.63;48.37;99494.19;67845;1276;1016404;-65
2023/09/29 07:36:33;;;;;;;27.70;12.10;;;;;;;27.78;48.03;99490.72;67871;1276;1019843;-65
2023/09/29 07:39:35;;;;;;;24.50;11.20;;;;;;;27.89;47.78;99493.13;67870;1276;1016235;-64
2023/09/29 07:42:38;;;;;;;27.00;11.70;;;;;;;28.13;47.85;99499.72;67892;1276;1016392;-65
2023/09/29 07:45:40;;;;;;;26.10;10.70;;;;;;;28.37;47.18;99493.52;67884;1276;1016422;-66
2023/09/29 07:48:43;;;;;;;24.20;10.40;;;;;;;28.55;46.79;99496.55;67847;1276;1016506;-65
2023/09/29 07:51:45;;;;;;;29.30;11.40;;;;;;;28.82;46.26;99492.98;67883;1276;1016472;-66
2023/09/29 07:54:47;;;;;;;24.30;10.80;;;;;;;28.93;45.98;99491.69;67885;1276;1016294;-65
2023/09/29 07:57:51;;;;;;;24.70;11.80;;;;;;;29.04;46.03;99493.39;67901;1276;1016655;-66
2023/09/29 08:00:53;;;;;;;29.30;10.50;;;;;;;29.21;45.71;99491.59;67887;1276;1016570;-64
2023/09/29 08:03:57;;;;;;;24.80;11.00;;;;;;;29.43;45.47;99490.39;67883;1276;1017205;-65
2023/09/29 08:06:59;;;;;;;28.60;11.50;;;;;;;29.57;45.44;99490.20;67849;1276;1017451;-65
2023/09/29 08:10:02;;;;;;;27.60;11.40;;;;;;;29.78;44.56;99487.55;67902;1276;1016412;-66
2023/09/29 08:13:05;;;;;;;25.40;11.10;;;;;;;29.96;44.63;99486.21;67876;1276;1016822;-65
2023/09/29 08:16:07;;;;;;;23.20;10.30;;;;;;;30.18;44.07;99489.92;67836;1276;1016066;-65
2023/09/29 08:19:09;;;;;;;26.40;10.40;;;;;;;30.40;43.97;99488.80;67926;1276;1016409;-65
2023/09/29 08:22:12;;;;;;;26.20;11.20;;;;;;;30.53;43.80;99489.54;67880;1276;1016206;-65
2023/09/29 08:25:14;;;;;;;24.90;10.80;;;;;;;30.64;43.51;99487.95;67902;1276;1016137;-65
2023/09/29 08:28:17;;;;;;;25.80;10.30;;;;;;;30.83;43.26;99488.48;67867;1276;1016368;-65
2023/09/29 08:31:20;;;;;;;26.00;10.10;;;;;;;31.15;43.12;99493.25;67852;1276;1016462;-65
2023/09/29 08:34:24;;;;;;;25.60;9.60;;;;;;;31.58;42.03;99489.71;67853;1276;1016372;-65
2023/09/29 08:37:26;;;;;;;22.40;8.80;;;;;;;31.68;40.93;99491.40;67901;1276;1018009;-65
2023/09/29 08:40:36;;;;;;;23.70;9.20;;;;;;;31.58;40.82;99490.03;67892;1276;1016312;-65
2023/09/29 08:43:39;;;;;;;23.00;8.20;;;;;;;31.54;40.53;99493.23;67903;1276;1016108;-64
2023/09/29 08:46:42;;;;;;;23.90;8.10;;;;;;;31.59;40.56;99492.50;67873;1276;1016445;-65
2023/09/29 08:49:46;;;;;;;21.90;8.50;;;;;;;31.82;40.41;99491.08;67868;1276;1016148;-65
2023/09/29 08:52:49;;;;;;;24.20;7.90;;;;;;;32.03;39.84;99487.30;67902;1276;1016301;-65
2023/09/29 08:55:51;;;;;;;24.10;8.00;;;;;;;32.34;39.17;99487.15;67847;1276;1016475;-65
2023/09/29 08:58:54;;;;;;;23.00;8.10;;;;;;;32.51;39.37;99483.86;67885;1276;1016307;-65
2023/09/29 09:01:58;;;;;;;24.50;7.80;;;;;;;32.71;39.30;99486.63;67884;1276;1016287;-65
2023/09/29 09:05:01;;;;;;;24.50;8.20;;;;;;;32.98;38.73;99481.83;67883;1276;1016384;-65
2023/09/29 09:08:03;;;;;;;23.40;8.00;;;;;;;33.26;38.73;99480.50;67856;1276;1016625;-65
2023/09/29 09:11:05;;;;;;;22.40;7.70;;;;;;;33.23;38.34;99482.41;67725;1276;1181424;-65
2023/09/29 09:14:10;;;;;;;20.60;7.70;;;;;;;33.36;38.11;99487.06;67841;1276;1016286;-65
2023/09/29 09:17:12;;;;;;;24.40;8.30;;;;;;;33.44;37.42;99481.15;67856;1276;1016883;-65
2023/09/29 09:20:15;;;;;;;21.70;8.00;;;;;;;33.54;37.54;99479.53;67875;1276;1016741;-65
2023/09/29 09:23:18;;;;;;;22.70;8.10;;;;;;;33.64;37.55;99482.66;67863;1276;1016485;-65
2023/09/29 09:26:21;;;;;;;26.00;7.80;;;;;;;33.77;36.66;99477.57;67875;1276;1016946;-65
2023/09/29 09:29:23;;;;;;;20.50;7.40;;;;;;;33.67;36.98;99480.77;67889;1276;1016310;-65
2023/09/29 09:32:26;;;;;;;25.30;7.70;;;;;;;33.62;36.99;99479.87;67891;1276;1016473;-66
2023/09/29 09:35:29;;;;;;;20.40;7.80;;;;;;;33.84;36.75;99477.81;67901;1253;1016934;-66
2023/09/29 09:38:31;;;;;;;23.40;8.20;;;;;;;34.21;36.29;99476.86;67886;1276;1016789;-66
2023/09/29 09:41:34;;;;;;;21.40;7.50;;;;;;;34.31;36.38;99475.48;67889;1276;1016468;-66
2023/09/29 09:44:38;;;;;;;22.60;8.20;;;;;;;34.33;36.14;99472.89;67875;1276;1016421;-66
2023/09/29 09:47:41;;;;;;;20.10;7.90;;;;;;;34.45;36.42;99473.39;67906;1276;1016559;-66
2023/09/29 09:50:45;;;;;;;24.10;7.60;;;;;;;34.57;35.99;99471.67;67903;1276;1016561;-66
2023/09/29 09:53:48;;;;;;;23.00;7.50;;;;;;;34.61;35.42;99469.85;67866;1262;1016795;-66
2023/09/29 09:56:51;;;;;;;24.20;7.40;;;;;;;34.84;35.12;99466.27;67853;1276;1016352;-66
2023/09/29 09:59:54;;;;;;;23.10;7.40;;;;;;;34.90;34.86;99464.41;67904;1276;1016481;-65
2023/09/29 10:02:57;;;;;;;22.70;7.10;;;;;;;35.06;34.44;99460.67;67905;1276;1016472;-65
2023/09/29 10:06:00;;;;;;;23.20;7.60;;;;;;;35.29;34.43;99458.27;67905;1276;1016491;-66
2023/09/29 10:09:07;;;;;;;18.60;6.50;;;;;;;35.42;33.87;99456.64;67866;1276;1016426;-65
2023/09/29 10:12:10;;;;;;;19.60;6.80;;;;;;;35.49;32.85;99454.71;67874;1276;1016136;-66
2023/09/29 10:15:13;;;;;;;21.20;6.90;;;;;;;35.25;32.83;99453.11;67894;1276;1016115;-66
2023/09/29 10:18:15;;;;;;;24.50;6.80;;;;;;;35.29;33.01;99448.07;67908;1276;1016291;-66
2023/09/29 10:21:18;;;;;;;19.90;6.70;;;;;;;35.43;32.79;99447.39;67858;1276;1016553;-66
2023/09/29 10:24:23;;;;;;;21.60;6.50;;;;;;;35.61;32.79;99446.59;67888;1276;1016485;-65
2023/09/29 10:27:27;;;;;;;22.60;6.80;;;;;;;35.71;32.17;99446.35;67893;1276;1016419;-66
2023/09/29 10:30:29;;;;;;;20.30;6.50;;;;;;;35.80;32.09;99447.73;67909;1276;1018660;-65
2023/09/29 10:33:31;;;;;;;22.60;6.20;;;;;;;35.68;30.47;99445.20;67891;1276;1018441;-66
2023/09/29 10:36:34;;;;;;;20.60;5.80;;;;;;;35.50;30.65;99446.48;67873;1276;1016511;-66
2023/09/29 10:39:36;;;;;;;19.60;5.90;;;;;;;35.46;30.05;99439.55;67876;1276;1016825;-65
2023/09/29 10:42:38;;;;;;;20.20;5.80;;;;;;;35.11;28.83;99435.03;67851;1276;1016783;-65
2023/09/29 10:45:41;;;;;;;20.70;5.80;;;;;;;34.96;29.00;99431.17;67882;1276;1016110;-66
2023/09/29 10:48:43;;;;;;;19.50;5.80;;;;;;;34.90;29.02;99430.27;67910;1276;1016502;-65
2023/09/29 10:51:47;;;;;;;24.10;6.60;;;;;;;34.43;28.30;99424.23;67908;1276;1016656;-65
2023/09/29 10:54:56;;;;;;;19.30;5.90;;;;;;;34.17;28.60;99418.14;67857;1276;1019089;-66
2023/09/29 10:57:59;;;;;;;20.00;5.90;;;;;;;34.26;28.41;99415.61;67912;1276;1016200;-66
2023/09/29 11:01:01;;;;;;;27.10;5.80;;;;;;;34.25;27.81;99409.06;67864;1276;1016836;-65
2023/09/29 11:04:03;;;;;;;17.80;5.50;;;;;;;34.41;28.45;99406.42;67921;1276;1016469;-65
2023/09/29 11:07:06;;;;;;;21.30;6.00;;;;;;;34.60;27.97;99412.42;67914;1276;1016327;-65
2023/09/29 11:10:08;;;;;;;21.00;5.70;;;;;;;34.78;28.24;99404.27;67887;1276;1016267;-66
2023/09/29 11:13:10;;;;;;;22.30;6.00;;;;;;;34.59;27.21;99401.66;67919;1276;1017946;-66
2023/09/29 11:16:13;;;;;;;21.10;5.60;;;;;;;34.23;26.61;99402.22;67912;1276;1016404;-66
2023/09/29 11:19:15;;;;;;;22.70;6.40;;;;;;;33.92;27.78;99400.69;67859;1276;1016477;-65
2023/09/29 11:22:18;;;;;;;22.40;7.30;;;;;;;34.25;27.90;99396.88;67881;1276;1016843;-65
2023/09/29 11:25:20;;;;;;;19.40;5.80;;;;;;;34.41;27.13;99392.09;67932;1276;1016427;-66
2023/09/29 11:28:23;;;;;;;20.50;5.60;;;;;;;34.53;27.50;99391.05;67889;1276;1016279;-65
2023/09/29 11:31:26;;;;;;;17.80;5.50;;;;;;;34.75;27.32;99390.44;67917;1276;1016510;-65
2023/09/29 11:34:31;;;;;;;21.60;6.10;;;;;;;34.61;27.19;99382.69;67914;1276;1016311;-65
2023/09/29 11:37:34;;;;;;;17.70;5.70;;;;;;;34.78;27.20;99387.88;67872;1276;1016423;-66
2023/09/29 11:40:36;;;;;;;17.10;5.90;;;;;;;35.09;27.71;99383.21;67928;1276;1018231;-65
2023/09/29 11:43:38;;;;;;;18.30;5.90;;;;;;;35.16;27.48;99382.31;67925;1276;1016803;-66
2023/09/29 11:46:41;;;;;;;20.30;6.30;;;;;;;35.11;26.54;99380.04;67917;1276;1020076;-66
2023/09/29 11:49:43;;;;;;;19.00;5.30;;;;;;;34.76;25.61;99373.99;67894;1276;1016367;-66
2023/09/29 11:52:45;;;;;;;20.50;6.00;;;;;;;34.53;27.22;99372.45;67821;1276;1016298;-65
2023/09/29 11:55:48;;;;;;;20.40;5.80;;;;;;;34.78;26.71;99367.18;67846;1276;1016357;-65
2023/09/29 11:58:50;;;;;;;21.80;5.30;;;;;;;34.87;26.43;99364.65;67882;1276;1016911;-65
2023/09/29 12:01:52;;;;;;;22.50;5.90;;;;;;;34.80;26.04;99357.55;67886;1276;1016342;-65
2023/09/29 12:04:55;;;;;;;19.00;6.00;;;;;;;34.79;26.24;99358.27;67924;1276;1016534;-65
2023/09/29 12:07:59;;;;;;;16.50;5.00;;;;;;;34.78;26.46;99354.23;67919;1276;1015752;-66
2023/09/29 12:11:01;;;;;;;17.50;5.40;;;;;;;34.67;26.33;99350.33;67890;1276;1016443;-65
2023/09/29 12:14:08;;;;;;;20.80;6.30;;;;;;;34.51;26.53;99347.85;67902;1276;1016641;-65
2023/09/29 12:17:10;;;;;;;20.40;5.30;;;;;;;34.68;26.67;99344.94;67865;1276;1016713;-66
2023/09/29 12:20:14;;;;;;;21.70;6.20;;;;;;;34.80;26.43;99343.32;67894;1276;1016513;-65
2023/09/29 12:23:17;;;;;;;20.40;6.10;;;;;;;34.88;26.49;99340.55;67906;1276;1016463;-65
2023/09/29 12:26:19;;;;;;;25.70;6.30;;;;;;;34.70;26.14;99341.09;67912;1276;1018515;-66
2023/09/29 12:29:22;;;;;;;19.20;5.70;;;;;;;34.65;26.33;99336.06;67919;1276;1016485;-65
2023/09/29 12:32:24;;;;;;;23.30;6.10;;;;;;;34.76;26.38;99333.63;67892;1276;1016627;-66
2023/09/29 12:35:27;;;;;;;20.80;5.20;;;;;;;34.87;25.78;99329.34;67877;1276;1016369;-66
2023/09/29 12:38:30;;;;;;;24.10;5.70;;;;;;;34.72;26.15;99327.89;67913;1276;1016413;-65
2023/09/29 12:41:33;;;;;;;23.60;6.00;;;;;;;34.51;26.05;99326.84;67903;1276;1017072;-66
2023/09/29 12:44:36;;;;;;;19.70;5.50;;;;;;;34.48;26.12;99324.45;67885;1276;1016042;-66
2023/09/29 12:47:38;;;;;;;20.00;5.20;;;;;;;34.69;26.38;99320.77;67903;1276;1016511;-66
2023/09/29 12:50:41;;;;;;;18.70;5.70;;;;;;;34.90;26.00;99317.65;67883;1276;1016507;-66
2023/09/29 12:53:43;;;;;;;19.30;5.20;;;;;;;35.00;25.46;99318.55;67917;1276;1016493;-66
2023/09/29 12:56:46;;;;;;;17.10;4.90;;;;;;;34.91;25.13;99312.53;67916;1276;1016504;-66
2023/09/29 12:59:48;;;;;;;20.00;6.00;;;;;;;34.83;25.46;99314.62;67918;1276;1018468;-66
2023/09/29 13:02:53;;;;;;;19.90;5.50;;;;;;;34.65;25.57;99309.48;67880;1276;1018419;-66
2023/09/29 13:05:55;;;;;;;19.10;5.60;;;;;;;34.79;25.80;99307.60;67916;1276;1016188;-66
2023/09/29 13:08:58;;;;;;;18.40;5.10;;;;;;;34.94;25.48;99309.71;67925;1276;1016451;-66
2023/09/29 13:12:00;;;;;;;21.20;5.90;;;;;;;34.93;25.18;99303.21;67883;1276;1016428;-66
2023/09/29 13:15:05;;;;;;;19.40;5.30;;;;;;;34.93;25.71;99303.56;67865;1276;1016542;-66
2023/09/29 13:18:08;;;;;;;15.40;4.70;;;;;;;34.98;25.33;99303.95;67927;1276;1016388;-66
2023/09/29 13:21:10;;;;;;;16.30;5.10;;;;;;;34.92;25.52;99298.56;67920;1276;1016331;-66
2023/09/29 13:24:12;;;;;;;16.30;5.30;;;;;;;34.82;24.91;99289.87;67869;1276;1015987;-66
2023/09/29 13:27:15;;;;;;;20.20;5.70;;;;;;;35.11;26.19;99285.30;67868;1276;1017365;-66
2023/09/29 13:30:17;;;;;;;19.50;5.40;;;;;;;35.25;25.64;99285.68;67907;1276;1016255;-66
2023/09/29 13:33:20;;;;;;;19.50;5.20;;;;;;;35.18;25.51;99283.42;67920;1276;1016655;-66
2023/09/29 13:36:23;;;;;;;18.70;5.50;;;;;;;35.16;25.10;99283.15;67876;1276;1016436;-66
2023/09/29 13:39:26;;;;;;;19.60;5.60;;;;;;;35.23;25.46;99275.86;67926;1276;1018292;-66
2023/09/29 13:42:29;;;;;;;25.00;6.10;;;;;;;35.13;25.36;99272.98;67835;1276;1016437;-66
2023/09/29 13:45:31;;;;;;;22.00;5.50;;;;;;;35.01;24.99;99266.55;67874;1276;1017468;-66
2023/09/29 13:48:33;;;;;;;20.30;5.80;;;;;;;35.02;25.17;99268.84;67873;1276;1016237;-66